sensor_id;sensor_type;location;lat;lon;timestamp;pressure;altitude;pressure_sealevel;temperature;humidity
69245;BME280;56357;52.304;4.870;2023-01-28T00:00:08;103270.09;;;16.95;49.87
69245;BME280;56357;52.304;4.870;2023-01-28T00:02:35;103262.13;;;16.92;49.91
69245;BME280;56357;52.304;4.870;2023-01-28T00:05:02;103264.69;;;16.87;50.00
69245;BME280;56357;52.304;4.870;2023-01-28T00:07:29;103270.94;;;16.89;50.24
69245;BME280;56357;52.304;4.870;2023-01-28T00:09:55;103264.28;;;16.90;49.84
69245;BME280;56357;52.304;4.870;2023-01-28T00:12:22;103269.88;;;16.90;50.02
69245;BME280;56357;52.304;4.870;2023-01-28T00:14:49;103269.88;;;16.90;49.75
69245;BME280;56357;52.304;4.870;2023-01-28T00:17:15;103252.66;;;16.80;49.72
69245;BME280;56357;52.304;4.870;2023-01-28T00:19:42;103254.38;;;16.81;49.62
69245;BME280;56357;52.304;4.870;2023-01-28T00:22:09;103256.97;;;16.82;49.87
69245;BME280;56357;52.304;4.870;2023-01-28T00:24:35;103260.19;;;16.86;49.67
69245;BME280;56357;52.304;4.870;2023-01-28T00:27:02;103256.09;;;16.82;49.81
69245;BME280;56357;52.304;4.870;2023-01-28T00:29:28;103245.53;;;16.71;49.64
69245;BME280;56357;52.304;4.870;2023-01-28T00:31:55;103248.13;;;16.79;49.78
69245;BME280;56357;52.304;4.870;2023-01-28T00:34:21;103253.72;;;16.79;49.43
69245;BME280;56357;52.304;4.870;2023-01-28T00:36:48;103259.34;;;16.79;49.82
69245;BME280;56357;52.304;4.870;2023-01-28T00:39:22;103259.75;;;16.76;49.77
69245;BME280;56357;52.304;4.870;2023-01-28T00:41:49;103259.09;;;16.74;49.60
69245;BME280;56357;52.304;4.870;2023-01-28T00:44:15;103261.06;;;16.73;49.56
69245;BME280;56357;52.304;4.870;2023-01-28T00:46:42;103260.84;;;16.75;49.63
69245;BME280;56357;52.304;4.870;2023-01-28T00:49:08;103260.41;;;16.71;49.92
69245;BME280;56357;52.304;4.870;2023-01-28T00:51:35;103265.34;;;16.69;49.89
69245;BME280;56357;52.304;4.870;2023-01-28T00:54:02;103255.00;;;16.70;49.81
69245;BME280;56357;52.304;4.870;2023-01-28T00:56:29;103252.84;;;16.65;49.93
69245;BME280;56357;52.304;4.870;2023-01-28T00:58:55;103256.72;;;16.71;49.91
69245;BME280;56357;52.304;4.870;2023-01-28T01:01:25;103266.41;;;16.68;49.65
69245;BME280;56357;52.304;4.870;2023-01-28T01:03:53;103261.03;;;16.67;49.73
69245;BME280;56357;52.304;4.870;2023-01-28T01:06:31;103261.88;;;16.61;49.55
69245;BME280;56357;52.304;4.870;2023-01-28T01:08:58;103260.81;;;16.62;49.41
69245;BME280;56357;52.304;4.870;2023-01-28T01:11:25;103262.53;;;16.63;49.67
69245;BME280;56357;52.304;4.870;2023-01-28T01:13:56;103258.44;;;16.59;49.66
69245;BME280;56357;52.304;4.870;2023-01-28T01:16:25;103255.41;;;16.60;49.49
69245;BME280;56357;52.304;4.870;2023-01-28T01:18:53;103248.75;;;16.55;49.86
69245;BME280;56357;52.304;4.870;2023-01-28T01:21:23;103253.47;;;16.54;49.68
69245;BME280;56357;52.304;4.870;2023-01-28T01:23:50;103261.44;;;16.57;49.65
69245;BME280;56357;52.304;4.870;2023-01-28T01:26:17;103258.88;;;16.56;49.53
69245;BME280;56357;52.304;4.870;2023-01-28T01:28:43;103253.28;;;16.56;49.81
69245;BME280;56357;52.304;4.870;2023-01-28T01:31:15;103257.34;;;16.53;49.69
69245;BME280;56357;52.304;4.870;2023-01-28T01:33:45;103261.41;;;16.51;49.84
69245;BME280;56357;52.304;4.870;2023-01-28T01:36:13;103262.94;;;16.53;49.70
69245;BME280;56357;52.304;4.870;2023-01-28T01:38:40;103261.66;;;16.56;49.56
69245;BME280;56357;52.304;4.870;2023-01-28T01:41:08;103261.41;;;16.51;49.40
69245;BME280;56357;52.304;4.870;2023-01-28T01:43:52;103261.63;;;16.49;49.55
69245;BME280;56357;52.304;4.870;2023-01-28T01:46:42;103261.16;;;16.45;49.73
69245;BME280;56357;52.304;4.870;2023-01-28T01:51:43;103253.00;;;16.44;49.57
69245;BME280;56357;52.304;4.870;2023-01-28T01:54:12;103261.16;;;16.45;49.63
69245;BME280;56357;52.304;4.870;2023-01-28T01:56:42;103257.94;;;16.42;49.65
69245;BME280;56357;52.304;4.870;2023-01-28T01:59:11;103246.50;;;16.37;49.52
69245;BME280;56357;52.304;4.870;2023-01-28T02:01:41;103247.59;;;16.42;49.64
69245;BME280;56357;52.304;4.870;2023-01-28T02:04:13;103254.50;;;16.40;49.61
69245;BME280;56357;52.304;4.870;2023-01-28T02:06:43;103266.56;;;16.40;49.40
69245;BME280;56357;52.304;4.870;2023-01-28T02:09:24;103265.69;;;16.40;49.55
69245;BME280;56357;52.304;4.870;2023-01-28T02:11:55;103270.19;;;16.41;49.51
69245;BME280;56357;52.304;4.870;2023-01-28T02:14:25;103263.50;;;16.35;49.52
69245;BME280;56357;52.304;4.870;2023-01-28T02:16:53;103272.13;;;16.34;49.61
69245;BME280;56357;52.304;4.870;2023-01-28T02:19:21;103276.63;;;16.35;49.79
69245;BME280;56357;52.304;4.870;2023-01-28T02:22:09;103286.97;;;16.34;49.60
69245;BME280;56357;52.304;4.870;2023-01-28T02:25:01;103283.53;;;16.32;49.84
69245;BME280;56357;52.304;4.870;2023-01-28T02:30:28;103283.03;;;16.22;49.50
69245;BME280;56357;52.304;4.870;2023-01-28T02:33:00;103271.66;;;16.24;49.50
69245;BME280;56357;52.304;4.870;2023-01-28T02:35:40;103274.22;;;16.25;49.34
69245;BME280;56357;52.304;4.870;2023-01-28T02:38:18;103261.50;;;16.16;49.47
69245;BME280;56357;52.304;4.870;2023-01-28T02:40:50;103272.72;;;16.23;49.49
69245;BME280;56357;52.304;4.870;2023-01-28T02:43:48;103276.81;;;16.20;49.60
69245;BME280;56357;52.304;4.870;2023-01-28T02:46:35;103278.72;;;16.20;49.39
69245;BME280;56357;52.304;4.870;2023-01-28T02:49:34;103278.50;;;16.21;49.48
69245;BME280;56357;52.304;4.870;2023-01-28T02:55:26;103277.22;;;16.17;49.38
69245;BME280;56357;52.304;4.870;2023-01-28T02:58:09;103271.22;;;16.20;49.05
69245;BME280;56357;52.304;4.870;2023-01-28T03:03:15;103274.84;;;16.14;49.49
69245;BME280;56357;52.304;4.870;2023-01-28T03:05:50;103269.91;;;16.16;49.29
69245;BME280;56357;52.304;4.870;2023-01-28T03:08:51;103277.84;;;16.13;49.37
69245;BME280;56357;52.304;4.870;2023-01-28T03:11:41;103273.31;;;16.12;49.51
69245;BME280;56357;52.304;4.870;2023-01-28T03:14:27;103276.97;;;16.12;49.29
69245;BME280;56357;52.304;4.870;2023-01-28T03:17:18;103270.50;;;16.12;49.43
69245;BME280;56357;52.304;4.870;2023-01-28T03:20:04;103276.97;;;16.12;49.43
69245;BME280;56357;52.304;4.870;2023-01-28T03:22:50;103265.97;;;16.04;49.35
69245;BME280;56357;52.304;4.870;2023-01-28T03:25:37;103272.88;;;16.08;49.31
69245;BME280;56357;52.304;4.870;2023-01-28T03:28:24;103270.50;;;16.05;49.27
69245;BME280;56357;52.304;4.870;2023-01-28T03:31:12;103271.38;;;16.06;49.18
69245;BME280;56357;52.304;4.870;2023-01-28T03:33:58;103270.72;;;16.04;49.42
69245;BME280;56357;52.304;4.870;2023-01-28T03:36:44;103271.34;;;15.99;49.27
69245;BME280;56357;52.304;4.870;2023-01-28T03:39:20;103274.78;;;16.01;49.37
69245;BME280;56357;52.304;4.870;2023-01-28T03:42:00;103275.00;;;16.00;49.21
69245;BME280;56357;52.304;4.870;2023-01-28T03:44:27;103277.81;;;16.00;49.24
69245;BME280;56357;52.304;4.870;2023-01-28T03:47:11;103277.34;;;15.96;49.22
69245;BME280;56357;52.304;4.870;2023-01-28T03:49:40;103289.81;;;15.94;49.21
69245;BME280;56357;52.304;4.870;2023-01-28T03:52:06;103287.00;;;15.94;49.45
69245;BME280;56357;52.304;4.870;2023-01-28T03:54:33;103286.31;;;15.85;49.52
69245;BME280;56357;52.304;4.870;2023-01-28T03:56:59;103296.22;;;15.88;49.49
69245;BME280;56357;52.304;4.870;2023-01-28T03:59:26;103293.63;;;15.86;49.48
69245;BME280;56357;52.304;4.870;2023-01-28T04:01:53;103296.44;;;15.86;49.47
69245;BME280;56357;52.304;4.870;2023-01-28T04:04:20;103297.47;;;15.85;49.45
69245;BME280;56357;52.304;4.870;2023-01-28T04:06:52;103299.22;;;15.86;49.47
69245;BME280;56357;52.304;4.870;2023-01-28T04:09:20;103298.13;;;15.87;49.33
69245;BME280;56357;52.304;4.870;2023-01-28T04:11:47;103299.84;;;15.82;49.75
69245;BME280;56357;52.304;4.870;2023-01-28T04:14:14;103299.22;;;15.86;49.46
69245;BME280;56357;52.304;4.870;2023-01-28T04:16:41;103291.66;;;15.80;49.52
69245;BME280;56357;52.304;4.870;2023-01-28T04:19:09;103305.25;;;15.90;49.83
69245;BME280;56357;52.304;4.870;2023-01-28T04:21:37;103293.47;;;15.94;49.90
69245;BME280;56357;52.304;4.870;2023-01-28T04:24:04;103299.06;;;16.01;49.55
69245;BME280;56357;52.304;4.870;2023-01-28T04:26:30;103287.03;;;16.00;49.56
69245;BME280;56357;52.304;4.870;2023-01-28T04:28:57;103290.69;;;16.01;49.35
69245;BME280;56357;52.304;4.870;2023-01-28T04:31:23;103275.63;;;15.95;49.56
69245;BME280;56357;52.304;4.870;2023-01-28T04:33:49;103277.75;;;15.93;49.89
69245;BME280;56357;52.304;4.870;2023-01-28T04:36:16;103281.66;;;15.99;49.38
69245;BME280;56357;52.304;4.870;2023-01-28T04:38:42;103288.09;;;15.99;49.30
69245;BME280;56357;52.304;4.870;2023-01-28T04:41:09;103279.25;;;15.89;49.67
69245;BME280;56357;52.304;4.870;2023-01-28T04:43:35;103276.50;;;16.02;49.67
69245;BME280;56357;52.304;4.870;2023-01-28T04:46:02;103271.13;;;15.94;49.57
69245;BME280;56357;52.304;4.870;2023-01-28T04:48:28;103282.75;;;16.04;49.83
69245;BME280;56357;52.304;4.870;2023-01-28T04:50:56;103288.16;;;16.06;49.89
69245;BME280;56357;52.304;4.870;2023-01-28T04:53:22;103281.91;;;16.10;49.37
69245;BME280;56357;52.304;4.870;2023-01-28T04:55:49;103286.63;;;16.03;49.61
69245;BME280;56357;52.304;4.870;2023-01-28T04:58:15;103294.19;;;16.09;49.56
69245;BME280;56357;52.304;4.870;2023-01-28T05:00:41;103301.91;;;16.14;49.68
69245;BME280;56357;52.304;4.870;2023-01-28T05:03:08;103304.94;;;16.12;49.43
69245;BME280;56357;52.304;4.870;2023-01-28T05:05:34;103305.81;;;16.13;49.72
69245;BME280;56357;52.304;4.870;2023-01-28T05:08:01;103300.59;;;16.10;49.77
69245;BME280;56357;52.304;4.870;2023-01-28T05:10:27;103309.25;;;16.21;49.48
69245;BME280;56357;52.304;4.870;2023-01-28T05:12:53;103311.84;;;16.16;49.54
69245;BME280;56357;52.304;4.870;2023-01-28T05:15:20;103302.78;;;16.08;49.57
69245;BME280;56357;52.304;4.870;2023-01-28T05:17:46;103299.81;;;16.22;49.77
69245;BME280;56357;52.304;4.870;2023-01-28T05:20:13;103286.50;;;16.24;49.23
69245;BME280;56357;52.304;4.870;2023-01-28T05:22:40;103284.75;;;16.17;49.88
69245;BME280;56357;52.304;4.870;2023-01-28T05:25:08;103292.09;;;16.24;49.38
69245;BME280;56357;52.304;4.870;2023-01-28T05:27:34;103294.88;;;16.24;49.57
69245;BME280;56357;52.304;4.870;2023-01-28T05:30:00;103289.94;;;16.26;49.79
69245;BME280;56357;52.304;4.870;2023-01-28T05:32:27;103280.91;;;16.24;49.68
69245;BME280;56357;52.304;4.870;2023-01-28T05:34:53;103289.28;;;16.24;49.49
69245;BME280;56357;52.304;4.870;2023-01-28T05:37:20;103285.88;;;16.29;49.60
69245;BME280;56357;52.304;4.870;2023-01-28T05:39:46;103283.31;;;16.34;49.68
69245;BME280;56357;52.304;4.870;2023-01-28T05:42:13;103283.91;;;16.29;49.65
69245;BME280;56357;52.304;4.870;2023-01-28T05:44:40;103276.19;;;16.25;49.68
69245;BME280;56357;52.304;4.870;2023-01-28T05:47:06;103283.09;;;16.29;49.54
69245;BME280;56357;52.304;4.870;2023-01-28T05:49:33;103290.59;;;16.28;49.74
69245;BME280;56357;52.304;4.870;2023-01-28T05:51:59;103289.72;;;16.28;49.56
69245;BME280;56357;52.304;4.870;2023-01-28T05:54:27;103292.31;;;16.29;49.74
69245;BME280;56357;52.304;4.870;2023-01-28T05:56:53;103289.50;;;16.29;49.83
69245;BME280;56357;52.304;4.870;2023-01-28T05:59:20;103291.25;;;16.30;49.74
69245;BME280;56357;52.304;4.870;2023-01-28T06:01:46;103299.38;;;16.25;49.49
69245;BME280;56357;52.304;4.870;2023-01-28T06:04:13;103296.00;;;16.36;49.35
69245;BME280;56357;52.304;4.870;2023-01-28T06:06:42;103286.34;;;16.45;49.60
69245;BME280;56357;52.304;4.870;2023-01-28T06:09:08;103286.97;;;16.34;49.80
69245;BME280;56357;52.304;4.870;2023-01-28T06:11:35;103303.31;;;16.37;49.54
69245;BME280;56357;52.304;4.870;2023-01-28T06:14:01;103296.00;;;16.36;49.49
69245;BME280;56357;52.304;4.870;2023-01-28T06:16:28;103295.94;;;16.23;49.73
69245;BME280;56357;52.304;4.870;2023-01-28T06:18:54;103297.94;;;16.36;49.65
69245;BME280;56357;52.304;4.870;2023-01-28T06:21:21;103299.00;;;16.28;49.88
69245;BME280;56357;52.304;4.870;2023-01-28T06:23:47;103293.88;;;16.38;49.68
69245;BME280;56357;52.304;4.870;2023-01-28T06:26:13;103296.00;;;16.36;49.29
69245;BME280;56357;52.304;4.870;2023-01-28T06:28:40;103302.03;;;16.40;49.76
69245;BME280;56357;52.304;4.870;2023-01-28T06:31:06;103309.13;;;16.42;49.29
69245;BME280;56357;52.304;4.870;2023-01-28T06:33:33;103306.16;;;16.44;49.35
69245;BME280;56357;52.304;4.870;2023-01-28T06:36:03;103295.59;;;16.46;49.30
69245;BME280;56357;52.304;4.870;2023-01-28T06:38:30;103302.31;;;16.52;49.42
69245;BME280;56357;52.304;4.870;2023-01-28T06:40:57;103303.78;;;16.47;49.77
69245;BME280;56357;52.304;4.870;2023-01-28T06:43:24;103316.47;;;16.43;49.76
69245;BME280;56357;52.304;4.870;2023-01-28T06:45:53;103314.09;;;16.47;49.55
69245;BME280;56357;52.304;4.870;2023-01-28T06:48:20;103297.31;;;16.40;50.01
69245;BME280;56357;52.304;4.870;2023-01-28T06:50:47;103311.91;;;16.42;50.14
69245;BME280;56357;52.304;4.870;2023-01-28T06:53:14;103301.19;;;16.46;50.07
69245;BME280;56357;52.304;4.870;2023-01-28T06:55:41;103313.72;;;16.50;50.08
69245;BME280;56357;52.304;4.870;2023-01-28T06:58:08;103298.56;;;16.25;50.45
69245;BME280;56357;52.304;4.870;2023-01-28T07:00:35;103310.22;;;16.41;50.33
69245;BME280;56357;52.304;4.870;2023-01-28T07:03:03;103308.13;;;16.50;49.79
69245;BME280;56357;52.304;4.870;2023-01-28T07:05:30;103305.34;;;16.57;49.63
69245;BME280;56357;52.304;4.870;2023-01-28T07:07:56;103305.97;;;16.52;50.00
69245;BME280;56357;52.304;4.870;2023-01-28T07:10:23;103315.47;;;16.58;49.92
69245;BME280;56357;52.304;4.870;2023-01-28T07:12:49;103314.16;;;16.54;49.60
69245;BME280;56357;52.304;4.870;2023-01-28T07:15:16;103318.00;;;16.53;50.28
69245;BME280;56357;52.304;4.870;2023-01-28T07:17:43;103310.28;;;16.55;50.35
69245;BME280;56357;52.304;4.870;2023-01-28T07:20:12;103304.94;;;16.66;50.29
69245;BME280;56357;52.304;4.870;2023-01-28T07:22:40;103308.34;;;16.55;48.81
69245;BME280;56357;52.304;4.870;2023-01-28T07:25:08;103305.78;;;16.54;47.59
69245;BME280;56357;52.304;4.870;2023-01-28T07:27:35;103301.44;;;16.51;47.71
69245;BME280;56357;52.304;4.870;2023-01-28T07:30:02;103306.44;;;16.56;48.03
69245;BME280;56357;52.304;4.870;2023-01-28T07:32:29;103306.84;;;16.59;48.52
69245;BME280;56357;52.304;4.870;2023-01-28T07:34:56;103319.13;;;16.65;48.24
69245;BME280;56357;52.304;4.870;2023-01-28T07:37:22;103322.56;;;16.54;48.43
69245;BME280;56357;52.304;4.870;2023-01-28T07:39:49;103325.97;;;16.49;48.52
69245;BME280;56357;52.304;4.870;2023-01-28T07:42:16;103333.53;;;16.55;48.68
69245;BME280;56357;52.304;4.870;2023-01-28T07:44:43;103328.16;;;16.54;49.32
69245;BME280;56357;52.304;4.870;2023-01-28T07:47:09;103321.91;;;16.52;49.51
69245;BME280;56357;52.304;4.870;2023-01-28T07:49:36;103329.25;;;16.59;50.01
69245;BME280;56357;52.304;4.870;2023-01-28T07:52:04;103337.41;;;16.61;49.95
69245;BME280;56357;52.304;4.870;2023-01-28T07:54:31;103335.25;;;16.56;50.03
69245;BME280;56357;52.304;4.870;2023-01-28T07:56:57;103334.28;;;16.42;50.49
69245;BME280;56357;52.304;4.870;2023-01-28T07:59:23;103327.06;;;16.55;50.54
69245;BME280;56357;52.304;4.870;2023-01-28T08:01:50;103333.09;;;16.58;50.73
69245;BME280;56357;52.304;4.870;2023-01-28T08:04:18;103335.25;;;16.56;50.96
69245;BME280;56357;52.304;4.870;2023-01-28T08:06:44;103333.34;;;16.63;50.83
69245;BME280;56357;52.304;4.870;2023-01-28T08:09:11;103329.66;;;16.50;50.66
69245;BME280;56357;52.304;4.870;2023-01-28T08:11:37;103338.28;;;16.68;50.67
69245;BME280;56357;52.304;4.870;2023-01-28T08:14:05;103350.38;;;16.75;50.11
69245;BME280;56357;52.304;4.870;2023-01-28T08:16:31;103335.69;;;16.66;48.98
69245;BME280;56357;52.304;4.870;2023-01-28T08:18:57;103343.03;;;16.67;49.43
69245;BME280;56357;52.304;4.870;2023-01-28T08:21:24;103350.34;;;16.62;49.23
69245;BME280;56357;52.304;4.870;2023-01-28T08:23:50;103352.75;;;16.71;49.84
69245;BME280;56357;52.304;4.870;2023-01-28T08:26:17;103354.47;;;16.79;48.73
69245;BME280;56357;52.304;4.870;2023-01-28T08:28:43;103355.75;;;16.76;48.87
69245;BME280;56357;52.304;4.870;2023-01-28T08:31:10;103364.59;;;16.73;48.65
69245;BME280;56357;52.304;4.870;2023-01-28T08:33:36;103369.78;;;16.83;48.85
69245;BME280;56357;52.304;4.870;2023-01-28T08:36:03;103353.38;;;16.80;49.15
69245;BME280;56357;52.304;4.870;2023-01-28T08:38:30;103359.84;;;16.87;48.87
69245;BME280;56357;52.304;4.870;2023-01-28T08:40:56;103359.84;;;16.87;49.38
69245;BME280;56357;52.304;4.870;2023-01-28T08:43:24;103362.03;;;16.91;49.89
69245;BME280;56357;52.304;4.870;2023-01-28T08:45:50;103379.66;;;16.79;50.22
69245;BME280;56357;52.304;4.870;2023-01-28T08:48:18;103370.59;;;16.70;50.17
69245;BME280;56357;52.304;4.870;2023-01-28T08:50:44;103381.19;;;16.88;50.15
69245;BME280;56357;52.304;4.870;2023-01-28T08:53:13;103388.75;;;16.94;50.39
69245;BME280;56357;52.304;4.870;2023-01-28T08:55:40;103384.00;;;16.88;50.14
69245;BME280;56357;52.304;4.870;2023-01-28T08:58:11;103380.78;;;16.97;50.35
69245;BME280;56357;52.304;4.870;2023-01-28T09:00:38;103374.56;;;17.15;49.90
69245;BME280;56357;52.304;4.870;2023-01-28T09:03:06;103383.59;;;17.04;49.59
69245;BME280;56357;52.304;4.870;2023-01-28T09:05:36;103397.34;;;16.92;50.65
69245;BME280;56357;52.304;4.870;2023-01-28T09:08:04;103385.94;;;16.94;50.67
69245;BME280;56357;52.304;4.870;2023-01-28T09:10:31;103374.50;;;16.82;51.28
69245;BME280;56357;52.304;4.870;2023-01-28T09:12:58;103402.53;;;17.08;50.83
69245;BME280;56357;52.304;4.870;2023-01-28T09:15:24;103419.59;;;17.13;50.41
69245;BME280;56357;52.304;4.870;2023-01-28T09:17:56;103405.97;;;16.97;50.36
69245;BME280;56357;52.304;4.870;2023-01-28T09:20:23;103405.09;;;16.90;50.89
69245;BME280;56357;52.304;4.870;2023-01-28T09:22:49;103401.25;;;16.98;50.46
69245;BME280;56357;52.304;4.870;2023-01-28T09:25:16;103405.75;;;16.92;50.85
69245;BME280;56357;52.304;4.870;2023-01-28T09:27:42;103409.19;;;16.88;51.05
69245;BME280;56357;52.304;4.870;2023-01-28T09:30:09;103412.22;;;17.06;50.30
69245;BME280;56357;52.304;4.870;2023-01-28T09:32:37;103401.44;;;16.96;51.13
69245;BME280;56357;52.304;4.870;2023-01-28T09:35:04;103399.09;;;17.06;50.76
69245;BME280;56357;52.304;4.870;2023-01-28T09:37:30;103391.75;;;16.99;50.56
69245;BME280;56357;52.304;4.870;2023-01-28T09:39:57;103420.25;;;17.15;50.61
69245;BME280;56357;52.304;4.870;2023-01-28T09:47:55;103424.47;;;16.98;46.02
69245;BME280;56357;52.304;4.870;2023-01-28T09:52:57;103430.97;;;17.05;46.82
69245;BME280;56357;52.304;4.870;2023-01-28T09:55:35;103437.88;;;17.09;46.73
69245;BME280;56357;52.304;4.870;2023-01-28T09:58:11;103441.34;;;17.18;46.91
69245;BME280;56357;52.304;4.870;2023-01-28T10:14:16;103418.16;;;17.57;47.27
69245;BME280;56357;52.304;4.870;2023-01-28T10:19:31;103416.22;;;17.77;47.47
69245;BME280;56357;52.304;4.870;2023-01-28T10:22:03;103411.03;;;17.74;47.42
69245;BME280;56357;52.304;4.870;2023-01-28T10:24:33;103400.00;;;17.85;47.38
69245;BME280;56357;52.304;4.870;2023-01-28T10:27:11;103424.81;;;17.95;47.44
69245;BME280;56357;52.304;4.870;2023-01-28T10:29:40;103417.03;;;17.97;47.34
69245;BME280;56357;52.304;4.870;2023-01-28T10:34:50;103413.34;;;18.09;47.51
69245;BME280;56357;52.304;4.870;2023-01-28T10:37:18;103411.19;;;18.05;47.82
69245;BME280;56357;52.304;4.870;2023-01-28T10:39:45;103394.38;;;18.11;47.64
69245;BME280;56357;52.304;4.870;2023-01-28T10:44:44;103379.66;;;18.22;47.62
69245;BME280;56357;52.304;4.870;2023-01-28T10:47:15;103371.66;;;18.26;47.64
69245;BME280;56357;52.304;4.870;2023-01-28T10:49:52;103374.25;;;18.27;47.51
69245;BME280;56357;52.304;4.870;2023-01-28T10:52:21;103368.84;;;18.33;47.86
69245;BME280;56357;52.304;4.870;2023-01-28T10:54:58;103354.38;;;18.29;48.07
69245;BME280;56357;52.304;4.870;2023-01-28T10:57:25;103346.16;;;18.34;47.96
69245;BME280;56357;52.304;4.870;2023-01-28T10:59:51;103349.63;;;18.29;48.22
69245;BME280;56357;52.304;4.870;2023-01-28T11:04:47;103336.44;;;18.37;48.09
69245;BME280;56357;52.304;4.870;2023-01-28T11:07:26;103324.34;;;18.43;48.16
69245;BME280;56357;52.304;4.870;2023-01-28T11:09:52;103322.84;;;18.40;48.13
69245;BME280;56357;52.304;4.870;2023-01-28T11:12:20;103323.91;;;18.46;47.92
69245;BME280;56357;52.304;4.870;2023-01-28T11:14:54;103314.63;;;18.52;48.06
69245;BME280;56357;52.304;4.870;2023-01-28T11:17:23;103300.38;;;18.47;48.33
69245;BME280;56357;52.304;4.870;2023-01-28T11:19:52;103299.72;;;18.51;48.47
69245;BME280;56357;52.304;4.870;2023-01-28T11:22:35;103297.53;;;18.53;48.04
69245;BME280;56357;52.304;4.870;2023-01-28T11:25:34;103306.34;;;18.63;48.18
69245;BME280;56357;52.304;4.870;2023-01-28T11:28:07;103309.97;;;18.64;48.23
69245;BME280;56357;52.304;4.870;2023-01-28T11:30:40;103289.34;;;18.52;48.04
69245;BME280;56357;52.304;4.870;2023-01-28T11:33:15;103304.38;;;18.64;48.14
69245;BME280;56357;52.304;4.870;2023-01-28T11:35:55;103296.84;;;18.58;48.22
69245;BME280;56357;52.304;4.870;2023-01-28T11:38:24;103296.59;;;18.66;48.20
69245;BME280;56357;52.304;4.870;2023-01-28T11:40:51;103309.97;;;18.64;48.33
69245;BME280;56357;52.304;4.870;2023-01-28T11:43:21;103308.53;;;18.55;48.13
69245;BME280;56357;52.304;4.870;2023-01-28T11:48:43;103318.22;;;18.59;48.17
69245;BME280;56357;52.304;4.870;2023-01-28T12:00:24;103332.66;;;18.69;48.26
69245;BME280;56357;52.304;4.870;2023-01-28T12:05:48;103341.91;;;18.69;48.15
69245;BME280;56357;52.304;4.870;2023-01-28T12:08:37;103351.19;;;18.70;48.54
69245;BME280;56357;52.304;4.870;2023-01-28T12:28:07;103304.84;;;18.61;49.05
69245;BME280;56357;52.304;4.870;2023-01-28T12:33:27;103267.31;;;18.55;49.09
69245;BME280;56357;52.304;4.870;2023-01-28T12:39:14;103274.13;;;18.66;49.28
69245;BME280;56357;52.304;4.870;2023-01-28T12:41:49;103253.44;;;18.60;49.20
69245;BME280;56357;52.304;4.870;2023-01-28T12:44:24;103258.53;;;18.76;49.42
69245;BME280;56357;52.304;4.870;2023-01-28T12:46:57;103246.53;;;18.63;49.59
69245;BME280;56357;52.304;4.870;2023-01-28T12:49:34;103237.75;;;18.53;49.43
69245;BME280;56357;52.304;4.870;2023-01-28T12:52:11;103239.28;;;18.49;49.83
69245;BME280;56357;52.304;4.870;2023-01-28T12:54:59;103247.06;;;18.47;49.00
69245;BME280;56357;52.304;4.870;2023-01-28T12:57:30;103250.97;;;18.39;46.53
69245;BME280;56357;52.304;4.870;2023-01-28T13:02:34;103255.28;;;18.42;46.24
69245;BME280;56357;52.304;4.870;2023-01-28T13:05:26;103250.72;;;18.41;46.46
69245;BME280;56357;52.304;4.870;2023-01-28T13:08:24;103251.84;;;18.33;46.75
69245;BME280;56357;52.304;4.870;2023-01-28T13:10:51;103251.03;;;18.33;46.59
69245;BME280;56357;52.304;4.870;2023-01-28T13:13:29;103240.69;;;18.26;46.87
69245;BME280;56357;52.304;4.870;2023-01-28T13:15:57;103252.34;;;18.23;46.94
69245;BME280;56357;52.304;4.870;2023-01-28T13:18:44;103238.56;;;18.15;47.19
69245;BME280;56357;52.304;4.870;2023-01-28T13:21:27;103236.16;;;18.25;46.98
69245;BME280;56357;52.304;4.870;2023-01-28T13:29:31;103261.47;;;18.12;45.02
69245;BME280;56357;52.304;4.870;2023-01-28T13:32:00;103239.69;;;18.08;44.86
69245;BME280;56357;52.304;4.870;2023-01-28T13:34:37;103248.78;;;18.03;45.11
69245;BME280;56357;52.304;4.870;2023-01-28T13:39:49;103249.22;;;18.00;46.02
69245;BME280;56357;52.304;4.870;2023-01-28T13:42:19;103248.81;;;17.97;46.02
69245;BME280;56357;52.304;4.870;2023-01-28T13:44:47;103251.81;;;18.02;46.37
69245;BME280;56357;52.304;4.870;2023-01-28T13:47:28;103248.16;;;18.01;45.78
69245;BME280;56357;52.304;4.870;2023-01-28T13:50:02;103250.56;;;17.91;45.26
69245;BME280;56357;52.304;4.870;2023-01-28T13:52:43;103241.50;;;17.89;43.71
69245;BME280;56357;52.304;4.870;2023-01-28T14:15:12;103256.88;;;17.74;42.86
69245;BME280;56357;52.304;4.870;2023-01-28T14:17:45;103247.41;;;17.68;43.16
69245;BME280;56357;52.304;4.870;2023-01-28T14:20:32;103242.22;;;17.72;42.73
69245;BME280;56357;52.304;4.870;2023-01-28T14:23:04;103246.13;;;17.71;43.50
69245;BME280;56357;52.304;4.870;2023-01-28T14:28:39;103252.38;;;17.66;43.81
69245;BME280;56357;52.304;4.870;2023-01-28T14:31:15;103245.69;;;17.67;44.06
69245;BME280;56357;52.304;4.870;2023-01-28T14:33:43;103241.56;;;17.76;44.02
69245;BME280;56357;52.304;4.870;2023-01-28T14:36:10;103248.28;;;17.69;44.17
69245;BME280;56357;52.304;4.870;2023-01-28T14:38:40;103254.34;;;17.59;44.75
69245;BME280;56357;52.304;4.870;2023-01-28T14:41:10;103264.22;;;17.68;44.89
69245;BME280;56357;52.304;4.870;2023-01-28T14:43:43;103257.13;;;17.53;44.87
69245;BME280;56357;52.304;4.870;2023-01-28T14:51:51;103277.16;;;17.69;45.36
69245;BME280;56357;52.304;4.870;2023-01-28T14:59:53;103266.84;;;17.63;45.49
69245;BME280;56357;52.304;4.870;2023-01-28T15:02:25;103266.16;;;17.68;45.54
69245;BME280;56357;52.304;4.870;2023-01-28T15:04:53;103259.44;;;17.75;45.29
69245;BME280;56357;52.304;4.870;2023-01-28T15:07:26;103273.28;;;17.70;45.68
69245;BME280;56357;52.304;4.870;2023-01-28T15:12:33;103281.69;;;17.70;46.04
69245;BME280;56357;52.304;4.870;2023-01-28T15:15:13;103297.19;;;17.73;46.33